createdAt,value
2019-06-26T00:00:45.744Z,55.70
2019-06-26T00:03:15.991Z,56.00
2019-06-26T00:05:46.088Z,56.30
2019-06-26T00:08:16.355Z,56.50
2019-06-26T00:10:46.377Z,56.80
2019-06-26T00:13:26.078Z,57.30
2019-06-26T00:15:49.722Z,57.60
2019-06-26T00:18:19.929Z,58.00
2019-06-26T00:20:50.099Z,58.30
2019-06-26T00:23:20.382Z,58.50
2019-06-26T00:25:50.540Z,58.90
2019-06-26T00:28:20.847Z,59.20
2019-06-26T00:30:51.000Z,59.50
2019-06-26T00:33:21.140Z,59.90
2019-06-26T00:35:51.351Z,60.10
2019-06-26T00:38:21.732Z,60.40
2019-06-26T00:40:51.964Z,60.90
2019-06-26T00:43:22.029Z,61.40
2019-06-26T00:45:52.144Z,61.80
2019-06-26T00:48:22.177Z,61.70
2019-06-26T00:50:52.400Z,62.20
2019-06-26T00:53:22.560Z,62.40
2019-06-26T00:55:55.190Z,62.60
2019-06-26T00:58:24.889Z,62.90
2019-06-26T01:00:56.103Z,63.30
2019-06-26T01:03:26.078Z,63.50
2019-06-26T01:05:56.305Z,64.00
2019-06-26T01:08:26.331Z,63.40
2019-06-26T01:10:56.565Z,64.50
2019-06-26T01:13:26.806Z,64.40
2019-06-26T01:15:56.946Z,64.80
2019-06-26T01:18:27.093Z,64.90
2019-06-26T01:20:57.225Z,65.00
2019-06-26T01:23:27.471Z,65.20
2019-06-26T01:25:57.551Z,65.50
2019-06-26T01:28:27.732Z,65.60
2019-06-26T01:30:58.007Z,65.60
2019-06-26T01:33:28.107Z,65.60
2019-06-26T01:35:58.152Z,65.80
2019-06-26T01:38:28.328Z,66.00
2019-06-26T01:40:58.362Z,66.20
2019-06-26T01:43:28.421Z,66.20
2019-06-26T01:45:58.580Z,66.30
2019-06-26T01:48:28.794Z,66.40
2019-06-26T01:50:58.899Z,66.60
2019-06-26T01:53:29.108Z,66.80
2019-06-26T01:55:59.231Z,67.00
2019-06-26T01:58:29.371Z,67.10
2019-06-26T02:00:59.747Z,67.20
2019-06-26T02:03:29.942Z,67.50
2019-06-26T02:06:00.223Z,67.70
2019-06-26T02:08:30.455Z,67.90
2019-06-26T02:11:00.644Z,68.00
2019-06-26T02:13:30.829Z,68.10
2019-06-26T02:16:01.038Z,68.10
2019-06-26T02:19:05.464Z,68.30
2019-06-26T02:21:36.250Z,68.60
2019-06-26T02:24:06.439Z,68.80
2019-06-26T02:26:36.716Z,69.30
2019-06-26T02:29:06.819Z,69.50
2019-06-26T02:31:36.976Z,69.80
2019-06-26T02:34:07.073Z,70.10
2019-06-26T02:36:37.234Z,70.40
2019-06-26T02:39:08.318Z,70.90
2019-06-26T02:41:38.561Z,71.20
2019-06-26T02:44:08.805Z,71.60
2019-06-26T02:46:38.830Z,71.70
2019-06-26T02:49:10.127Z,72.00
2019-06-26T02:51:40.337Z,73.00
2019-06-26T02:54:10.536Z,72.50
2019-06-26T02:56:40.721Z,73.00
2019-06-26T02:59:10.921Z,73.20
2019-06-26T03:01:40.995Z,73.50
2019-06-26T03:04:11.038Z,73.80
2019-06-26T03:06:41.277Z,73.70
2019-06-26T03:09:11.426Z,74.10
2019-06-26T03:11:41.696Z,74.30
2019-06-26T03:14:11.924Z,74.30
2019-06-26T03:16:42.088Z,74.60
2019-06-26T03:19:12.279Z,74.80
2019-06-26T03:21:42.486Z,74.80
2019-06-26T03:24:14.620Z,75.90
2019-06-26T03:26:44.869Z,75.30
2019-06-26T03:29:14.942Z,75.50
2019-06-26T03:31:44.968Z,75.60
2019-06-26T03:34:15.045Z,75.70
2019-06-26T03:36:45.131Z,75.80
2019-06-26T03:39:15.315Z,76.10
2019-06-26T03:41:47.494Z,76.20
2019-06-26T03:44:17.711Z,76.30
2019-06-26T03:46:47.912Z,76.50
2019-06-26T03:49:18.036Z,76.70
2019-06-26T03:51:48.222Z,77.00
2019-06-26T03:54:18.280Z,77.10
2019-06-26T03:56:48.446Z,77.20
2019-06-26T03:59:18.747Z,77.40
2019-06-26T04:01:48.716Z,77.50
2019-06-26T04:04:18.765Z,77.90
2019-06-26T04:06:48.978Z,77.80
2019-06-26T04:09:25.198Z,78.00
2019-06-26T04:11:55.935Z,78.40
2019-06-26T04:14:25.954Z,78.50
2019-06-26T04:16:56.148Z,78.50
2019-06-26T04:19:26.264Z,78.90
2019-06-26T04:21:56.351Z,79.10
2019-06-26T04:24:26.382Z,79.10
2019-06-26T04:26:56.465Z,79.30
2019-06-26T04:29:26.527Z,80.10
2019-06-26T04:31:56.565Z,79.70
2019-06-26T04:34:26.618Z,79.90
2019-06-26T04:36:56.639Z,79.70
2019-06-26T04:39:26.832Z,79.90
2019-06-26T04:41:56.929Z,80.10
2019-06-26T04:44:27.021Z,80.30
2019-06-26T04:46:57.139Z,80.50
2019-06-26T04:49:27.229Z,81.40
2019-06-26T04:51:57.566Z,80.70
2019-06-26T04:54:27.613Z,80.80
2019-06-26T04:56:57.784Z,81.20
2019-06-26T04:59:27.994Z,81.20
2019-06-26T05:01:58.228Z,81.30
2019-06-26T05:04:28.330Z,81.30
2019-06-26T05:06:58.364Z,81.40
2019-06-26T05:09:28.528Z,81.70
2019-06-26T05:11:58.662Z,81.40
2019-06-26T05:14:28.828Z,81.70
2019-06-26T05:16:59.001Z,81.80
2019-06-26T05:19:29.036Z,81.60
2019-06-26T05:21:59.185Z,81.90
2019-06-26T05:24:29.135Z,81.50
2019-06-26T05:26:59.245Z,81.90
2019-06-26T05:29:29.416Z,81.90
2019-06-26T05:31:59.627Z,81.80
2019-06-26T05:34:29.740Z,81.90
2019-06-26T05:36:59.886Z,82.10
2019-06-26T05:39:30.075Z,82.50
2019-06-26T05:42:00.267Z,82.50
2019-06-26T05:44:30.258Z,82.70
2019-06-26T05:47:00.314Z,82.60
2019-06-26T05:49:30.484Z,82.90
2019-06-26T05:52:02.172Z,83.30
2019-06-26T05:54:32.390Z,82.90
2019-06-26T05:57:02.481Z,82.80
2019-06-26T05:59:32.562Z,82.80
2019-06-26T06:02:02.699Z,82.70
2019-06-26T06:04:32.725Z,82.90
2019-06-26T06:07:02.834Z,82.60
2019-06-26T06:09:33.012Z,82.70
2019-06-26T06:12:03.148Z,82.50
2019-06-26T06:14:33.254Z,82.60
2019-06-26T06:17:03.311Z,82.30
2019-06-26T06:19:33.326Z,82.00
2019-06-26T06:22:03.543Z,81.60
2019-06-26T06:24:33.567Z,81.20
2019-06-26T06:27:03.702Z,81.30
2019-06-26T06:29:33.813Z,81.00
2019-06-26T06:32:03.992Z,80.50
2019-06-26T06:34:34.045Z,80.10
2019-06-26T06:37:04.103Z,79.90
2019-06-26T06:39:34.148Z,79.60
2019-06-26T06:42:04.363Z,79.00
2019-06-26T06:44:34.502Z,78.40
2019-06-26T06:47:07.998Z,78.10
2019-06-26T06:49:36.614Z,77.90
2019-06-26T06:52:06.814Z,77.90
2019-06-26T06:54:36.910Z,77.60
2019-06-26T06:57:07.087Z,77.20
2019-06-26T06:59:37.268Z,76.90
2019-06-26T07:02:07.498Z,76.30
2019-06-26T07:04:37.592Z,75.80
2019-06-26T07:07:07.756Z,75.50
2019-06-26T07:09:37.865Z,75.00
2019-06-26T07:12:08.077Z,74.70
2019-06-26T07:14:38.043Z,75.10
2019-06-26T07:17:19.934Z,74.10
2019-06-26T07:19:39.953Z,74.10
2019-06-26T07:22:10.131Z,73.70
2019-06-26T07:24:40.250Z,73.10
2019-06-26T07:27:10.412Z,72.60
2019-06-26T07:29:40.591Z,72.50
2019-06-26T07:32:10.553Z,72.50
2019-06-26T07:34:40.791Z,72.30
2019-06-26T07:37:11.003Z,72.10
2019-06-26T07:39:41.099Z,71.80
2019-06-26T07:42:11.256Z,71.50
2019-06-26T07:44:41.197Z,71.20
2019-06-26T07:47:22.512Z,70.80
2019-06-26T07:49:43.298Z,70.50
2019-06-26T07:52:13.435Z,70.00
2019-06-26T07:54:43.584Z,69.40
2019-06-26T07:57:13.796Z,69.30
2019-06-26T07:59:43.905Z,69.20
2019-06-26T08:02:13.976Z,69.00
2019-06-26T08:04:45.306Z,68.40
2019-06-26T08:07:15.417Z,68.10
2019-06-26T08:09:45.650Z,67.70
2019-06-26T08:12:15.788Z,67.50
2019-06-26T08:14:45.905Z,67.20
2019-06-26T08:17:16.066Z,66.90
2019-06-26T08:19:46.160Z,66.30
2019-06-26T08:22:16.353Z,66.00
2019-06-26T08:24:46.471Z,65.90
2019-06-26T08:27:16.712Z,65.40
2019-06-26T08:29:46.803Z,65.20
2019-06-26T08:32:16.842Z,65.10
2019-06-26T08:34:46.928Z,64.90
2019-06-26T08:37:16.959Z,64.90
2019-06-26T08:39:47.067Z,64.50
2019-06-26T08:42:17.256Z,64.20
2019-06-26T08:44:47.458Z,64.40
2019-06-26T08:47:17.673Z,64.20
2019-06-26T08:49:47.736Z,64.00
2019-06-26T08:52:18.261Z,63.70
2019-06-26T08:54:48.371Z,63.70
2019-06-26T08:57:18.788Z,63.70
2019-06-26T08:59:49.105Z,63.70
2019-06-26T09:02:19.275Z,63.90
2019-06-26T09:04:49.360Z,64.10
2019-06-26T09:07:19.512Z,64.10
2019-06-26T09:09:49.609Z,64.10
2019-06-26T09:12:19.664Z,63.70
2019-06-26T09:14:49.883Z,63.80
2019-06-26T09:17:19.931Z,63.60
2019-06-26T09:19:50.042Z,63.30
2019-06-26T09:22:20.115Z,63.20
2019-06-26T09:24:50.155Z,62.50
2019-06-26T09:27:20.367Z,62.10
2019-06-26T09:29:50.583Z,62.40
2019-06-26T09:32:20.668Z,62.30
2019-06-26T09:34:50.793Z,62.20
2019-06-26T09:37:20.867Z,62.40
2019-06-26T09:39:51.036Z,61.90
2019-06-26T09:42:21.167Z,61.30
2019-06-26T09:44:51.198Z,61.10
2019-06-26T09:47:21.298Z,60.90
2019-06-26T09:49:51.446Z,60.50
2019-06-26T09:52:21.646Z,60.30
2019-06-26T09:54:51.761Z,60.10
2019-06-26T09:57:21.980Z,60.30
2019-06-26T09:59:51.966Z,60.40
2019-06-26T10:02:22.105Z,60.30
2019-06-26T10:04:52.212Z,60.30
2019-06-26T10:07:22.348Z,60.00
2019-06-26T10:09:52.461Z,60.00
2019-06-26T10:12:22.692Z,59.80
2019-06-26T10:14:52.920Z,59.40
2019-06-26T10:17:23.797Z,59.10
2019-06-26T10:19:54.343Z,59.00
2019-06-26T10:22:24.686Z,59.00
2019-06-26T10:24:54.955Z,58.60
2019-06-26T10:27:32.793Z,58.70
2019-06-26T10:30:03.132Z,58.70
2019-06-26T10:32:33.354Z,58.20
2019-06-26T10:35:03.678Z,58.40
2019-06-26T10:37:33.911Z,58.30
2019-06-26T10:40:04.579Z,58.40
2019-06-26T10:42:34.846Z,58.40
2019-06-26T10:45:06.046Z,58.40
2019-06-26T10:47:39.677Z,58.50
2019-06-26T10:50:08.562Z,58.50
2019-06-26T10:52:38.817Z,58.40
2019-06-26T10:55:10.737Z,58.50
2019-06-26T10:57:41.102Z,58.60
2019-06-26T11:00:12.033Z,58.60
2019-06-26T11:02:42.720Z,58.60
2019-06-26T11:05:13.515Z,58.30
2019-06-26T11:07:43.745Z,58.10
2019-06-26T11:10:14.763Z,57.90
2019-06-26T11:12:48.833Z,57.60
2019-06-26T11:15:17.186Z,57.70
2019-06-26T11:17:47.271Z,57.60
2019-06-26T11:20:19.201Z,57.50
2019-06-26T11:22:49.491Z,57.50
2019-06-26T11:25:21.501Z,56.60
2019-06-26T11:27:51.771Z,56.40
2019-06-26T11:30:23.013Z,56.30
2019-06-26T11:32:53.213Z,56.50
2019-06-26T11:35:23.389Z,56.50
2019-06-26T11:37:53.764Z,56.60
2019-06-26T11:40:23.977Z,56.90
2019-06-26T11:42:54.165Z,56.80
2019-06-26T11:45:24.398Z,56.90
2019-06-26T11:47:54.995Z,56.80
2019-06-26T11:50:26.218Z,57.10
2019-06-26T11:52:56.641Z,57.20
2019-06-26T11:55:26.835Z,57.00
2019-06-26T11:57:57.066Z,56.80
2019-06-26T12:00:28.301Z,56.60
2019-06-26T12:02:58.537Z,56.50
2019-06-26T12:05:28.680Z,56.60
2019-06-26T12:08:08.080Z,56.50
2019-06-26T12:10:38.196Z,56.50
2019-06-26T12:13:17.639Z,56.60
2019-06-26T12:15:47.792Z,56.70
2019-06-26T12:18:18.087Z,56.30
2019-06-26T12:20:48.161Z,56.20
2019-06-26T12:23:18.267Z,56.20
2019-06-26T12:25:48.484Z,56.00
2019-06-26T12:28:18.660Z,56.10
2019-06-26T12:30:48.830Z,56.10
2019-06-26T12:33:18.896Z,56.10
2019-06-26T12:35:48.936Z,55.90
2019-06-26T12:38:19.041Z,56.00
2019-06-26T12:40:49.300Z,55.30
2019-06-26T12:43:19.426Z,55.20
2019-06-26T12:45:49.643Z,55.00
2019-06-26T12:48:19.935Z,55.00
2019-06-26T12:50:50.120Z,54.90
2019-06-26T12:53:20.382Z,55.00
2019-06-26T12:55:50.488Z,55.10
2019-06-26T12:58:20.584Z,55.10
2019-06-26T13:00:50.724Z,55.00
2019-06-26T13:03:20.914Z,54.80
2019-06-26T13:05:53.251Z,54.70
2019-06-26T13:08:23.456Z,54.70
2019-06-26T13:10:53.875Z,54.80
2019-06-26T13:13:24.091Z,54.90
2019-06-26T13:15:54.180Z,54.60
2019-06-26T13:18:24.311Z,54.60
2019-06-26T13:20:54.712Z,54.50
2019-06-26T13:23:25.018Z,54.20
2019-06-26T13:25:55.209Z,54.30
2019-06-26T13:28:25.360Z,54.10
2019-06-26T13:30:55.903Z,54.10
2019-06-26T13:33:26.001Z,54.00
2019-06-26T13:35:56.339Z,54.00
2019-06-26T13:38:27.298Z,54.00
2019-06-26T13:40:57.695Z,54.00
2019-06-26T13:43:31.568Z,53.90
2019-06-26T13:46:01.791Z,53.90
2019-06-26T13:48:33.051Z,53.80
2019-06-26T13:51:09.441Z,53.40
2019-06-26T13:53:35.112Z,53.20
2019-06-26T13:56:05.535Z,53.10
2019-06-26T13:58:35.632Z,52.80
2019-06-26T14:01:05.859Z,52.60
2019-06-26T14:03:36.023Z,52.50
2019-06-26T14:06:06.191Z,52.80
2019-06-26T14:08:36.386Z,52.40
2019-06-26T14:11:07.667Z,52.10
2019-06-26T14:13:41.536Z,51.90
2019-06-26T14:16:09.721Z,51.80
2019-06-26T14:18:39.822Z,51.40
2019-06-26T14:21:24.506Z,51.40
2019-06-26T14:23:42.069Z,51.20
2019-06-26T14:26:12.650Z,51.20
2019-06-26T14:28:42.965Z,51.10
2019-06-26T14:31:13.106Z,51.10
2019-06-26T14:33:43.269Z,51.10
2019-06-26T14:36:13.636Z,51.00
2019-06-26T14:38:43.918Z,50.90
2019-06-26T14:41:14.258Z,50.70
2019-06-26T14:43:44.537Z,50.50
2019-06-26T14:46:17.225Z,50.40
2019-06-26T14:48:47.506Z,50.40
2019-06-26T14:51:17.847Z,50.10
2019-06-26T14:53:48.264Z,50.10
2019-06-26T14:56:18.491Z,50.10
2019-06-26T14:58:48.724Z,50.10
2019-06-26T15:01:18.953Z,49.60
2019-06-26T15:03:49.235Z,49.50
2019-06-26T15:06:19.755Z,49.70
2019-06-26T15:08:50.064Z,49.70
2019-06-26T15:11:20.186Z,49.50
2019-06-26T15:13:50.532Z,49.70
2019-06-26T15:16:20.788Z,49.30
2019-06-26T15:18:51.121Z,49.20
2019-06-26T15:21:21.363Z,49.20
2019-06-26T15:23:53.742Z,49.10
2019-06-26T15:26:24.423Z,48.90
2019-06-26T15:28:54.572Z,48.90
2019-06-26T15:31:24.866Z,48.70
2019-06-26T15:33:55.001Z,48.50
2019-06-26T15:36:25.028Z,48.50
2019-06-26T15:38:58.919Z,48.50
2019-06-26T15:41:27.063Z,48.60
2019-06-26T15:43:57.436Z,48.80
2019-06-26T15:46:28.291Z,49.00
2019-06-26T15:48:58.974Z,49.10
2019-06-26T15:51:29.162Z,49.20
2019-06-26T15:54:00.129Z,49.70
2019-06-26T15:56:30.161Z,49.70
2019-06-26T15:59:00.289Z,49.90
2019-06-26T16:01:30.476Z,50.10
2019-06-26T16:04:00.670Z,50.20
2019-06-26T16:06:30.714Z,50.30
2019-06-26T16:09:01.087Z,50.40
2019-06-26T16:11:31.119Z,50.20
2019-06-26T16:14:01.362Z,49.90
2019-06-26T16:16:32.548Z,49.50
2019-06-26T16:19:07.802Z,49.30
2019-06-26T16:21:38.094Z,48.90
2019-06-26T16:24:08.384Z,48.60
2019-06-26T16:26:38.631Z,48.70
2019-06-26T16:29:08.892Z,48.80
2019-06-26T16:31:39.238Z,49.00
2019-06-26T16:34:13.119Z,49.00
2019-06-26T16:36:41.700Z,49.00
2019-06-26T16:39:13.931Z,48.80
2019-06-26T16:41:44.355Z,48.70
2019-06-26T16:44:14.760Z,48.80
2019-06-26T16:46:45.038Z,48.90
2019-06-26T16:49:15.076Z,49.00
2019-06-26T16:51:45.296Z,49.10
2019-06-26T16:54:15.582Z,49.10
2019-06-26T16:56:45.838Z,49.20
2019-06-26T16:59:16.016Z,49.20
2019-06-26T17:01:46.528Z,49.20
2019-06-26T17:04:16.820Z,49.40
2019-06-26T17:06:47.114Z,49.30
2019-06-26T17:09:17.364Z,49.10
2019-06-26T17:11:47.704Z,49.00
2019-06-26T17:14:17.834Z,49.00
2019-06-26T17:16:48.063Z,49.00
2019-06-26T17:19:18.659Z,49.20
2019-06-26T17:21:49.124Z,49.40
2019-06-26T17:24:19.336Z,49.50
2019-06-26T17:26:49.660Z,49.50
2019-06-26T17:29:19.936Z,49.80
2019-06-26T17:31:50.153Z,50.00
2019-06-26T17:34:20.329Z,50.20
2019-06-26T17:36:51.739Z,50.40
2019-06-26T17:39:22.039Z,50.50
2019-06-26T17:41:52.210Z,50.60
2019-06-26T17:44:22.418Z,50.80
2019-06-26T17:46:52.605Z,50.80
2019-06-26T17:49:22.854Z,50.80
2019-06-26T17:51:53.203Z,50.70
2019-06-26T17:54:23.521Z,50.50
2019-06-26T17:56:54.877Z,50.40
2019-06-26T17:59:25.065Z,50.40
2019-06-26T18:01:55.325Z,50.40
2019-06-26T18:04:25.483Z,50.30
2019-06-26T18:06:55.701Z,50.40
2019-06-26T18:09:25.750Z,50.40
2019-06-26T18:11:57.025Z,50.60
2019-06-26T18:14:29.017Z,50.50
2019-06-26T18:16:59.213Z,50.60
2019-06-26T18:19:29.473Z,50.80
2019-06-26T18:21:59.589Z,50.90
2019-06-26T18:24:29.688Z,51.00
2019-06-26T18:26:59.977Z,51.10
2019-06-26T18:29:30.194Z,51.20
2019-06-26T18:32:00.746Z,51.10
2019-06-26T18:34:31.210Z,51.20
2019-06-26T18:37:01.834Z,51.40
2019-06-26T18:39:32.174Z,51.40
2019-06-26T18:42:02.655Z,51.40
2019-06-26T18:44:33.102Z,51.40
2019-06-26T18:47:03.427Z,51.20
2019-06-26T18:49:33.543Z,51.20
2019-06-26T18:52:03.838Z,51.10
2019-06-26T18:54:34.155Z,51.10
2019-06-26T18:57:04.697Z,51.10
2019-06-26T18:59:35.082Z,51.00
2019-06-26T19:02:05.393Z,50.90
2019-06-26T19:04:35.474Z,50.80
2019-06-26T19:07:05.613Z,50.70
2019-06-26T19:09:35.756Z,50.80
2019-06-26T19:12:05.971Z,50.90
2019-06-26T19:14:36.160Z,50.80
2019-06-26T19:17:06.391Z,51.00
2019-06-26T19:19:36.450Z,51.10
2019-06-26T19:22:07.382Z,51.10
2019-06-26T19:24:38.050Z,51.10
2019-06-26T19:27:08.271Z,51.20
2019-06-26T19:29:38.288Z,51.20
2019-06-26T19:32:08.403Z,51.40
2019-06-26T19:34:38.618Z,51.40
2019-06-26T19:37:08.713Z,51.50
2019-06-26T19:39:39.089Z,51.90
2019-06-26T19:42:10.991Z,51.80
2019-06-26T19:44:41.403Z,52.20
2019-06-26T19:47:11.576Z,52.10
2019-06-26T19:49:42.087Z,52.20
2019-06-26T19:52:12.290Z,52.40
2019-06-26T19:54:42.419Z,52.50
2019-06-26T19:57:12.612Z,52.70
2019-06-26T19:59:42.816Z,52.90
2019-06-26T20:02:12.953Z,53.00
2019-06-26T20:04:43.623Z,53.20
2019-06-26T20:07:14.100Z,53.30
2019-06-26T20:09:44.411Z,53.50
2019-06-26T20:12:14.734Z,53.50
2019-06-26T20:14:45.032Z,53.80
2019-06-26T20:17:15.494Z,53.80
2019-06-26T20:19:45.878Z,54.00
2019-06-26T20:22:16.267Z,54.30
2019-06-26T20:24:46.619Z,54.50
2019-06-26T20:27:16.903Z,54.80
2019-06-26T20:29:47.229Z,54.60
2019-06-26T20:32:17.555Z,54.80
2019-06-26T20:34:47.846Z,55.00
2019-06-26T20:37:18.116Z,55.30
2019-06-26T20:39:48.447Z,55.40
2019-06-26T20:42:18.737Z,55.60
2019-06-26T20:44:49.080Z,55.60
2019-06-26T20:47:19.386Z,56.00
2019-06-26T20:49:53.489Z,56.00
2019-06-26T20:52:21.848Z,56.50
2019-06-26T20:55:01.061Z,56.60
2019-06-26T20:57:24.313Z,56.70
2019-06-26T20:59:54.538Z,56.80
2019-06-26T21:02:25.170Z,56.80
2019-06-26T21:04:55.436Z,56.80
2019-06-26T21:07:25.812Z,57.00
2019-06-26T21:09:56.160Z,57.10
2019-06-26T21:12:26.747Z,57.20
2019-06-26T21:14:57.077Z,57.30
2019-06-26T21:17:27.641Z,57.40
2019-06-26T21:19:58.236Z,57.50
2019-06-26T21:22:28.588Z,57.70
2019-06-26T21:24:59.081Z,57.80
2019-06-26T21:27:32.232Z,58.30
2019-06-26T21:30:01.381Z,58.10
2019-06-26T21:32:31.711Z,58.20
2019-06-26T21:35:02.079Z,58.40
2019-06-26T21:37:32.409Z,58.70
2019-06-26T21:40:02.789Z,58.60
2019-06-26T21:42:33.121Z,59.00
2019-06-26T21:45:03.846Z,59.20
2019-06-26T21:47:34.144Z,59.20
2019-06-26T21:50:04.709Z,59.20
2019-06-26T21:52:35.022Z,59.20
2019-06-26T21:55:05.468Z,59.40
2019-06-26T21:57:35.795Z,59.70
2019-06-26T22:00:08.555Z,59.60
2019-06-26T22:02:38.996Z,59.80
2019-06-26T22:05:11.257Z,60.10
2019-06-26T22:07:41.594Z,60.40
2019-06-26T22:10:11.988Z,61.00
2019-06-26T22:12:42.309Z,60.80
2019-06-26T22:15:12.942Z,61.20
2019-06-26T22:17:43.274Z,61.40
2019-06-26T22:20:15.173Z,62.30
2019-06-26T22:22:45.488Z,62.20
2019-06-26T22:25:16.107Z,62.30
2019-06-26T22:27:46.444Z,62.60
2019-06-26T22:30:18.491Z,63.20
2019-06-26T22:32:49.095Z,62.80
2019-06-26T22:35:19.761Z,63.10
2019-06-26T22:37:50.106Z,63.30
2019-06-26T22:40:21.067Z,63.30
2019-06-26T22:42:51.423Z,63.70
2019-06-26T22:45:21.766Z,64.00
2019-06-26T22:47:52.047Z,64.00
2019-06-26T22:50:22.354Z,64.20
2019-06-26T22:52:52.637Z,64.80
2019-06-26T22:55:23.219Z,64.80
2019-06-26T22:57:53.587Z,65.30
2019-06-26T23:00:24.316Z,65.40
2019-06-26T23:02:54.657Z,65.60
2019-06-26T23:05:24.957Z,66.20
2019-06-26T23:07:55.322Z,66.20
2019-06-26T23:10:25.885Z,67.30
2019-06-26T23:12:56.178Z,67.20
2019-06-26T23:15:26.437Z,67.60
2019-06-26T23:17:57.095Z,67.70
2019-06-26T23:20:27.433Z,67.90
2019-06-26T23:22:57.852Z,68.40
2019-06-26T23:25:28.523Z,68.40
2019-06-26T23:27:58.926Z,68.50
2019-06-26T23:30:29.227Z,68.60
2019-06-26T23:32:59.946Z,69.10
2019-06-26T23:35:30.415Z,69.70
2019-06-26T23:38:00.663Z,69.30
2019-06-26T23:40:30.984Z,69.60
2019-06-26T23:43:01.293Z,69.70
2019-06-26T23:45:31.612Z,70.10
2019-06-26T23:48:02.281Z,70.00
2019-06-26T23:50:32.579Z,70.30
2019-06-26T23:53:03.099Z,70.40
2019-06-26T23:55:33.432Z,70.40
2019-06-26T23:58:03.751Z,70.50
